sensor_id;sensor_type;location;lat;lon;timestamp;temperature;humidity
66582;SHT31;53438;48.898;2.308;2023-04-16T03:01:39;7.84;73.71
66582;SHT31;53438;48.898;2.308;2023-04-16T03:04:05;7.95;73.40
66582;SHT31;53438;48.898;2.308;2023-04-16T03:06:30;8.08;73.24
66582;SHT31;53438;48.898;2.308;2023-04-16T03:08:56;7.94;73.29
66582;SHT31;53438;48.898;2.308;2023-04-16T03:11:21;8.13;72.89
66582;SHT31;53438;48.898;2.308;2023-04-16T03:13:47;8.05;72.96
66582;SHT31;53438;48.898;2.308;2023-04-16T03:16:14;8.09;73.13
66582;SHT31;53438;48.898;2.308;2023-04-16T03:18:39;8.18;72.66
66582;SHT31;53438;48.898;2.308;2023-04-16T03:21:04;8.16;72.92
66582;SHT31;53438;48.898;2.308;2023-04-16T03:23:30;8.21;72.43
66582;SHT31;53438;48.898;2.308;2023-04-16T03:25:56;8.16;72.45
66582;SHT31;53438;48.898;2.308;2023-04-16T03:28:21;8.13;72.85
66582;SHT31;53438;48.898;2.308;2023-04-16T03:30:52;8.05;72.70
66582;SHT31;53438;48.898;2.308;2023-04-16T03:33:18;7.87;73.07
66582;SHT31;53438;48.898;2.308;2023-04-16T03:35:44;8.02;73.06
66582;SHT31;53438;48.898;2.308;2023-04-16T03:38:09;7.87;73.09
66582;SHT31;53438;48.898;2.308;2023-04-16T03:40:35;7.87;73.29
66582;SHT31;53438;48.898;2.308;2023-04-16T03:43:00;7.75;73.08
66582;SHT31;53438;48.898;2.308;2023-04-16T03:45:25;7.88;73.20
66582;SHT31;53438;48.898;2.308;2023-04-16T03:47:51;7.77;73.04
66582;SHT31;53438;48.898;2.308;2023-04-16T03:50:17;7.87;73.16
66582;SHT31;53438;48.898;2.308;2023-04-16T03:52:43;7.85;73.10
66582;SHT31;53438;48.898;2.308;2023-04-16T03:55:09;7.94;72.61
66582;SHT31;53438;48.898;2.308;2023-04-16T03:57:34;7.94;72.42
66582;SHT31;53438;48.898;2.308;2023-04-16T03:59:59;7.89;72.57
66582;SHT31;53438;48.898;2.308;2023-04-16T04:02:25;7.54;73.25
66582;SHT31;53438;48.898;2.308;2023-04-16T04:04:51;7.48;73.90
66582;SHT31;53438;48.898;2.308;2023-04-16T04:07:16;7.46;73.99
66582;SHT31;53438;48.898;2.308;2023-04-16T04:09:41;7.40;73.80
66582;SHT31;53438;48.898;2.308;2023-04-16T04:12:07;7.37;73.81
66582;SHT31;53438;48.898;2.308;2023-04-16T04:14:34;7.40;73.87
66582;SHT31;53438;48.898;2.308;2023-04-16T04:17:04;7.58;73.60
66582;SHT31;53438;48.898;2.308;2023-04-16T04:19:29;7.53;73.47
66582;SHT31;53438;48.898;2.308;2023-04-16T04:21:54;7.51;73.90
66582;SHT31;53438;48.898;2.308;2023-04-16T04:24:20;7.44;74.04
66582;SHT31;53438;48.898;2.308;2023-04-16T04:26:45;7.56;73.74
66582;SHT31;53438;48.898;2.308;2023-04-16T04:29:11;7.51;74.07
66582;SHT31;53438;48.898;2.308;2023-04-16T04:31:36;7.50;74.21
66582;SHT31;53438;48.898;2.308;2023-04-16T04:34:01;7.61;73.86
66582;SHT31;53438;48.898;2.308;2023-04-16T04:36:27;7.70;74.00
66582;SHT31;53438;48.898;2.308;2023-04-16T04:38:52;7.87;74.56
66582;SHT31;53438;48.898;2.308;2023-04-16T04:41:18;7.57;76.09
66582;SHT31;53438;48.898;2.308;2023-04-16T04:43:43;7.44;77.28
66582;SHT31;53438;48.898;2.308;2023-04-16T04:46:08;7.36;78.30
66582;SHT31;53438;48.898;2.308;2023-04-16T04:48:33;7.34;78.75
66582;SHT31;53438;48.898;2.308;2023-04-16T04:50:59;7.37;78.79
66582;SHT31;53438;48.898;2.308;2023-04-16T04:53:25;7.42;79.16
66582;SHT31;53438;48.898;2.308;2023-04-16T04:55:50;7.34;79.73
66582;SHT31;53438;48.898;2.308;2023-04-16T04:58:16;7.24;80.56
66582;SHT31;53438;48.898;2.308;2023-04-16T05:00:41;7.10;81.02
66582;SHT31;53438;48.898;2.308;2023-04-16T05:03:09;7.22;80.92
66582;SHT31;53438;48.898;2.308;2023-04-16T05:05:35;7.13;81.17
66582;SHT31;53438;48.898;2.308;2023-04-16T05:08:01;7.15;81.21
66582;SHT31;53438;48.898;2.308;2023-04-16T05:10:26;7.03;81.68
66582;SHT31;53438;48.898;2.308;2023-04-16T05:12:52;7.02;81.69
66582;SHT31;53438;48.898;2.308;2023-04-16T05:15:17;7.23;81.40
66582;SHT31;53438;48.898;2.308;2023-04-16T05:17:42;7.05;81.69
66582;SHT31;53438;48.898;2.308;2023-04-16T05:20:08;6.97;82.02
66582;SHT31;53438;48.898;2.308;2023-04-16T05:22:33;6.95;82.04
66582;SHT31;53438;48.898;2.308;2023-04-16T05:24:59;6.99;82.20
66582;SHT31;53438;48.898;2.308;2023-04-16T05:27:24;6.99;82.20
66582;SHT31;53438;48.898;2.308;2023-04-16T05:29:49;6.92;82.32
66582;SHT31;53438;48.898;2.308;2023-04-16T05:32:15;7.03;82.10
66582;SHT31;53438;48.898;2.308;2023-04-16T05:34:40;6.97;82.01
66582;SHT31;53438;48.898;2.308;2023-04-16T05:37:05;6.99;81.97
66582;SHT31;53438;48.898;2.308;2023-04-16T05:39:31;7.02;82.09
66582;SHT31;53438;48.898;2.308;2023-04-16T05:41:56;6.93;82.19
66582;SHT31;53438;48.898;2.308;2023-04-16T05:44:22;6.92;82.39
66582;SHT31;53438;48.898;2.308;2023-04-16T05:46:47;7.05;82.17
66582;SHT31;53438;48.898;2.308;2023-04-16T05:49:12;7.10;81.89
66582;SHT31;53438;48.898;2.308;2023-04-16T05:51:38;7.20;81.50
66582;SHT31;53438;48.898;2.308;2023-04-16T05:54:03;7.17;81.35
66582;SHT31;53438;48.898;2.308;2023-04-16T05:56:28;7.30;80.90
66582;SHT31;53438;48.898;2.308;2023-04-16T05:58:54;7.36;80.71
66582;SHT31;53438;48.898;2.308;2023-04-16T06:01:20;7.37;80.68
66582;SHT31;53438;48.898;2.308;2023-04-16T06:03:45;7.34;80.51
66582;SHT31;53438;48.898;2.308;2023-04-16T06:06:11;7.31;80.68
66582;SHT31;53438;48.898;2.308;2023-04-16T06:08:36;7.42;80.42
66582;SHT31;53438;48.898;2.308;2023-04-16T06:11:02;7.43;80.15
66582;SHT31;53438;48.898;2.308;2023-04-16T06:13:27;7.40;80.31
66582;SHT31;53438;48.898;2.308;2023-04-16T06:15:52;7.57;79.89
66582;SHT31;53438;48.898;2.308;2023-04-16T06:18:18;7.46;80.07
66582;SHT31;53438;48.898;2.308;2023-04-16T06:20:43;7.40;79.91
66582;SHT31;53438;48.898;2.308;2023-04-16T06:23:08;7.38;80.23
66582;SHT31;53438;48.898;2.308;2023-04-16T06:25:34;7.40;80.78
66582;SHT31;53438;48.898;2.308;2023-04-16T06:27:59;7.56;80.19
66582;SHT31;53438;48.898;2.308;2023-04-16T06:30:25;7.50;80.16
66582;SHT31;53438;48.898;2.308;2023-04-16T06:32:50;7.57;79.84
66582;SHT31;53438;48.898;2.308;2023-04-16T06:35:16;7.54;79.82
66582;SHT31;53438;48.898;2.308;2023-04-16T06:37:44;7.58;80.12
66582;SHT31;53438;48.898;2.308;2023-04-16T06:40:09;7.66;79.62
66582;SHT31;53438;48.898;2.308;2023-04-16T06:42:35;7.64;79.81
66582;SHT31;53438;48.898;2.308;2023-04-16T06:45:00;7.63;79.65
66582;SHT31;53438;48.898;2.308;2023-04-16T06:47:26;7.77;79.26
66582;SHT31;53438;48.898;2.308;2023-04-16T06:49:51;7.84;79.11
66582;SHT31;53438;48.898;2.308;2023-04-16T06:52:16;7.88;78.95
66582;SHT31;53438;48.898;2.308;2023-04-16T06:54:42;7.92;78.79
66582;SHT31;53438;48.898;2.308;2023-04-16T06:57:07;7.79;79.06
66582;SHT31;53438;48.898;2.308;2023-04-16T06:59:32;7.84;78.95
66582;SHT31;53438;48.898;2.308;2023-04-16T07:01:58;7.78;79.01
66582;SHT31;53438;48.898;2.308;2023-04-16T07:04:23;7.91;79.11
66582;SHT31;53438;48.898;2.308;2023-04-16T07:06:48;7.91;78.97
66582;SHT31;53438;48.898;2.308;2023-04-16T07:09:14;7.98;78.81
66582;SHT31;53438;48.898;2.308;2023-04-16T07:11:39;7.91;78.73
66582;SHT31;53438;48.898;2.308;2023-04-16T07:14:05;8.06;78.44
66582;SHT31;53438;48.898;2.308;2023-04-16T07:16:31;8.12;77.94
66582;SHT31;53438;48.898;2.308;2023-04-16T07:18:56;8.22;77.98
66582;SHT31;53438;48.898;2.308;2023-04-16T07:21:22;8.26;77.63
66582;SHT31;53438;48.898;2.308;2023-04-16T07:23:47;8.24;77.36
66582;SHT31;53438;48.898;2.308;2023-04-16T07:26:12;8.29;77.44
66582;SHT31;53438;48.898;2.308;2023-04-16T07:28:38;8.30;77.34
66582;SHT31;53438;48.898;2.308;2023-04-16T07:31:03;8.33;77.27
66582;SHT31;53438;48.898;2.308;2023-04-16T07:33:28;8.37;76.90
66582;SHT31;53438;48.898;2.308;2023-04-16T07:35:54;8.43;76.69
66582;SHT31;53438;48.898;2.308;2023-04-16T07:38:19;8.40;76.85
66582;SHT31;53438;48.898;2.308;2023-04-16T07:40:44;8.46;76.71
66582;SHT31;53438;48.898;2.308;2023-04-16T07:43:10;8.46;76.56
66582;SHT31;53438;48.898;2.308;2023-04-16T07:45:35;8.56;76.34
66582;SHT31;53438;48.898;2.308;2023-04-16T07:48:01;8.60;76.21
66582;SHT31;53438;48.898;2.308;2023-04-16T07:50:26;8.53;76.03
66582;SHT31;53438;48.898;2.308;2023-04-16T07:52:52;8.68;75.89
66582;SHT31;53438;48.898;2.308;2023-04-16T07:55:17;8.61;75.93
66582;SHT31;53438;48.898;2.308;2023-04-16T07:57:43;8.71;75.37
66582;SHT31;53438;48.898;2.308;2023-04-16T08:00:09;8.77;75.30
66582;SHT31;53438;48.898;2.308;2023-04-16T08:02:35;8.84;74.84
66582;SHT31;53438;48.898;2.308;2023-04-16T08:05:00;8.89;74.57
66582;SHT31;53438;48.898;2.308;2023-04-16T08:07:25;9.15;73.86
66582;SHT31;53438;48.898;2.308;2023-04-16T08:09:51;9.26;73.12
66582;SHT31;53438;48.898;2.308;2023-04-16T08:12:17;9.49;72.60
66582;SHT31;53438;48.898;2.308;2023-04-16T08:14:43;9.67;72.03
66582;SHT31;53438;48.898;2.308;2023-04-16T08:17:10;9.43;72.01
66582;SHT31;53438;48.898;2.308;2023-04-16T08:19:36;9.62;71.70
66582;SHT31;53438;48.898;2.308;2023-04-16T08:22:01;9.73;71.53
66582;SHT31;53438;48.898;2.308;2023-04-16T08:24:26;9.55;71.22
66582;SHT31;53438;48.898;2.308;2023-04-16T08:26:52;9.50;71.68
66582;SHT31;53438;48.898;2.308;2023-04-16T08:29:17;9.59;71.06
66582;SHT31;53438;48.898;2.308;2023-04-16T08:31:42;9.75;70.11
66582;SHT31;53438;48.898;2.308;2023-04-16T08:34:08;9.86;69.54
66582;SHT31;53438;48.898;2.308;2023-04-16T08:36:35;10.06;68.64
66582;SHT31;53438;48.898;2.308;2023-04-16T08:39:00;10.18;68.43
66582;SHT31;53438;48.898;2.308;2023-04-16T08:41:26;10.30;67.93
66582;SHT31;53438;48.898;2.308;2023-04-16T08:43:56;9.93;68.85
66582;SHT31;53438;48.898;2.308;2023-04-16T08:46:25;10.17;68.22
66582;SHT31;53438;48.898;2.308;2023-04-16T08:48:58;10.08;67.76
66582;SHT31;53438;48.898;2.308;2023-04-16T08:51:24;10.18;68.33
66582;SHT31;53438;48.898;2.308;2023-04-16T08:53:52;10.44;67.18
66582;SHT31;53438;48.898;2.308;2023-04-16T08:56:22;10.58;66.60
66582;SHT31;53438;48.898;2.308;2023-04-16T08:58:49;10.69;66.10
66582;SHT31;53438;48.898;2.308;2023-04-16T09:01:16;10.62;64.99
66582;SHT31;53438;48.898;2.308;2023-04-16T09:03:44;10.85;65.07
66582;SHT31;53438;48.898;2.308;2023-04-16T09:06:10;10.69;64.20
66582;SHT31;53438;48.898;2.308;2023-04-16T09:08:36;10.76;64.90
66582;SHT31;53438;48.898;2.308;2023-04-16T09:11:02;10.93;64.49
66582;SHT31;53438;48.898;2.308;2023-04-16T09:13:27;10.76;64.69
66582;SHT31;53438;48.898;2.308;2023-04-16T09:15:53;10.85;64.80
66582;SHT31;53438;48.898;2.308;2023-04-16T09:18:19;11.05;64.27
66582;SHT31;53438;48.898;2.308;2023-04-16T09:20:46;11.00;63.95
66582;SHT31;53438;48.898;2.308;2023-04-16T09:23:12;10.97;63.19
66582;SHT31;53438;48.898;2.308;2023-04-16T09:25:38;10.96;63.75
66582;SHT31;53438;48.898;2.308;2023-04-16T09:28:04;11.15;63.77
66582;SHT31;53438;48.898;2.308;2023-04-16T09:30:29;11.30;62.90
66582;SHT31;53438;48.898;2.308;2023-04-16T09:33:12;11.41;62.20
66582;SHT31;53438;48.898;2.308;2023-04-16T09:35:52;11.31;62.64
66582;SHT31;53438;48.898;2.308;2023-04-16T09:38:19;11.20;62.42
66582;SHT31;53438;48.898;2.308;2023-04-16T09:40:44;11.43;62.31
66582;SHT31;53438;48.898;2.308;2023-04-16T09:43:16;11.57;62.25
66582;SHT31;53438;48.898;2.308;2023-04-16T09:45:49;11.63;62.17
66582;SHT31;53438;48.898;2.308;2023-04-16T09:48:15;11.65;61.95
66582;SHT31;53438;48.898;2.308;2023-04-16T09:50:51;11.54;62.14
66582;SHT31;53438;48.898;2.308;2023-04-16T09:53:23;11.71;61.38
66582;SHT31;53438;48.898;2.308;2023-04-16T09:55:50;11.60;60.77
66582;SHT31;53438;48.898;2.308;2023-04-16T09:58:17;11.67;60.74
66582;SHT31;53438;48.898;2.308;2023-04-16T10:00:43;11.75;59.98
66582;SHT31;53438;48.898;2.308;2023-04-16T10:03:08;11.92;59.68
66582;SHT31;53438;48.898;2.308;2023-04-16T10:05:34;12.08;59.86
66582;SHT31;53438;48.898;2.308;2023-04-16T10:08:00;12.13;59.71
66582;SHT31;53438;48.898;2.308;2023-04-16T10:10:26;12.22;59.40
66582;SHT31;53438;48.898;2.308;2023-04-16T10:12:56;12.28;59.00
66582;SHT31;53438;48.898;2.308;2023-04-16T10:15:22;12.15;59.99
66582;SHT31;53438;48.898;2.308;2023-04-16T10:17:48;12.15;60.28
66582;SHT31;53438;48.898;2.308;2023-04-16T10:20:14;12.15;59.64
66582;SHT31;53438;48.898;2.308;2023-04-16T10:22:40;12.22;59.90
66582;SHT31;53438;48.898;2.308;2023-04-16T10:25:06;12.36;59.82
66582;SHT31;53438;48.898;2.308;2023-04-16T10:27:32;12.46;59.38
66582;SHT31;53438;48.898;2.308;2023-04-16T10:29:58;12.49;58.55
66582;SHT31;53438;48.898;2.308;2023-04-16T10:32:24;12.54;57.75
66582;SHT31;53438;48.898;2.308;2023-04-16T10:34:53;12.56;57.82
66582;SHT31;53438;48.898;2.308;2023-04-16T10:37:28;12.67;58.46
66582;SHT31;53438;48.898;2.308;2023-04-16T10:39:53;12.53;57.54
66582;SHT31;53438;48.898;2.308;2023-04-16T10:42:18;12.60;57.65
66582;SHT31;53438;48.898;2.308;2023-04-16T10:44:44;12.64;57.29
66582;SHT31;53438;48.898;2.308;2023-04-16T10:47:11;12.73;57.52
66582;SHT31;53438;48.898;2.308;2023-04-16T10:49:37;12.79;57.46
66582;SHT31;53438;48.898;2.308;2023-04-16T10:52:12;12.83;57.74
66582;SHT31;53438;48.898;2.308;2023-04-16T10:54:39;12.72;58.23
66582;SHT31;53438;48.898;2.308;2023-04-16T10:57:09;12.74;57.61
66582;SHT31;53438;48.898;2.308;2023-04-16T10:59:41;12.80;56.60
66582;SHT31;53438;48.898;2.308;2023-04-16T11:02:08;12.97;56.52
66582;SHT31;53438;48.898;2.308;2023-04-16T11:04:37;12.98;56.06
66582;SHT31;53438;48.898;2.308;2023-04-16T11:09:50;13.10;55.98
66582;SHT31;53438;48.898;2.308;2023-04-16T11:12:17;13.18;56.15
66582;SHT31;53438;48.898;2.308;2023-04-16T11:14:47;13.25;55.75
66582;SHT31;53438;48.898;2.308;2023-04-16T11:17:13;13.25;54.82
66582;SHT31;53438;48.898;2.308;2023-04-16T11:19:38;13.18;54.51
66582;SHT31;53438;48.898;2.308;2023-04-16T11:22:06;13.28;53.93
66582;SHT31;53438;48.898;2.308;2023-04-16T11:24:32;13.38;52.90
66582;SHT31;53438;48.898;2.308;2023-04-16T11:26:57;13.48;52.26
66582;SHT31;53438;48.898;2.308;2023-04-16T11:29:23;13.48;51.81
66582;SHT31;53438;48.898;2.308;2023-04-16T11:31:52;13.59;50.75
66582;SHT31;53438;48.898;2.308;2023-04-16T11:34:18;13.61;52.03
66582;SHT31;53438;48.898;2.308;2023-04-16T11:36:49;13.70;51.95
66582;SHT31;53438;48.898;2.308;2023-04-16T11:39:15;13.74;50.46
66582;SHT31;53438;48.898;2.308;2023-04-16T11:41:42;13.70;49.76
66582;SHT31;53438;48.898;2.308;2023-04-16T11:46:42;13.87;50.35
66582;SHT31;53438;48.898;2.308;2023-04-16T11:49:08;13.87;49.90
66582;SHT31;53438;48.898;2.308;2023-04-16T11:51:41;13.66;50.28
66582;SHT31;53438;48.898;2.308;2023-04-16T11:54:06;13.79;50.77
66582;SHT31;53438;48.898;2.308;2023-04-16T11:56:34;13.80;50.54
66582;SHT31;53438;48.898;2.308;2023-04-16T11:59:11;13.97;51.03
66582;SHT31;53438;48.898;2.308;2023-04-16T12:01:38;14.07;49.61
66582;SHT31;53438;48.898;2.308;2023-04-16T12:04:04;14.16;48.82
66582;SHT31;53438;48.898;2.308;2023-04-16T12:06:30;14.06;48.78
66582;SHT31;53438;48.898;2.308;2023-04-16T12:08:56;14.18;48.43
66582;SHT31;53438;48.898;2.308;2023-04-16T12:11:37;14.14;48.52
66582;SHT31;53438;48.898;2.308;2023-04-16T12:14:09;14.27;48.71
66582;SHT31;53438;48.898;2.308;2023-04-16T12:16:35;14.49;48.24
66582;SHT31;53438;48.898;2.308;2023-04-16T12:19:02;14.41;48.09
66582;SHT31;53438;48.898;2.308;2023-04-16T12:21:48;14.41;48.40
66582;SHT31;53438;48.898;2.308;2023-04-16T12:24:17;14.54;48.64
66582;SHT31;53438;48.898;2.308;2023-04-16T12:26:52;14.58;48.64
66582;SHT31;53438;48.898;2.308;2023-04-16T12:29:27;14.62;48.48
66582;SHT31;53438;48.898;2.308;2023-04-16T12:31:53;14.73;46.84
66582;SHT31;53438;48.898;2.308;2023-04-16T12:34:19;14.75;47.24
66582;SHT31;53438;48.898;2.308;2023-04-16T12:36:46;14.78;48.01
66582;SHT31;53438;48.898;2.308;2023-04-16T12:39:12;14.69;47.17
66582;SHT31;53438;48.898;2.308;2023-04-16T12:41:39;14.78;47.27
66582;SHT31;53438;48.898;2.308;2023-04-16T12:44:10;14.86;47.05
66582;SHT31;53438;48.898;2.308;2023-04-16T12:46:40;14.95;47.98
66582;SHT31;53438;48.898;2.308;2023-04-16T12:49:06;14.88;47.57
66582;SHT31;53438;48.898;2.308;2023-04-16T12:51:32;15.02;47.80
66582;SHT31;53438;48.898;2.308;2023-04-16T12:53:59;15.03;47.93
66582;SHT31;53438;48.898;2.308;2023-04-16T12:56:25;15.14;47.15
66582;SHT31;53438;48.898;2.308;2023-04-16T12:58:50;15.10;47.10
66582;SHT31;53438;48.898;2.308;2023-04-16T13:01:19;15.07;47.75
66582;SHT31;53438;48.898;2.308;2023-04-16T13:03:45;15.04;47.38
66582;SHT31;53438;48.898;2.308;2023-04-16T13:06:12;15.03;47.42
66582;SHT31;53438;48.898;2.308;2023-04-16T13:08:38;15.09;47.68
66582;SHT31;53438;48.898;2.308;2023-04-16T13:11:04;15.12;47.25
66582;SHT31;53438;48.898;2.308;2023-04-16T13:13:29;15.19;48.43
66582;SHT31;53438;48.898;2.308;2023-04-16T13:15:55;15.27;48.21
66582;SHT31;53438;48.898;2.308;2023-04-16T13:18:20;15.13;47.58
66582;SHT31;53438;48.898;2.308;2023-04-16T13:20:45;15.23;47.16
66582;SHT31;53438;48.898;2.308;2023-04-16T13:23:11;15.24;46.89
66582;SHT31;53438;48.898;2.308;2023-04-16T13:25:36;15.19;46.02
66582;SHT31;53438;48.898;2.308;2023-04-16T13:28:02;15.24;46.36
66582;SHT31;53438;48.898;2.308;2023-04-16T13:30:27;15.27;46.38
66582;SHT31;53438;48.898;2.308;2023-04-16T13:32:54;15.22;46.68
66582;SHT31;53438;48.898;2.308;2023-04-16T13:35:20;15.23;46.94
66582;SHT31;53438;48.898;2.308;2023-04-16T13:37:45;15.22;47.07
66582;SHT31;53438;48.898;2.308;2023-04-16T13:40:10;15.19;46.25
66582;SHT31;53438;48.898;2.308;2023-04-16T13:42:36;15.13;45.97
66582;SHT31;53438;48.898;2.308;2023-04-16T13:45:02;15.33;46.38
66582;SHT31;53438;48.898;2.308;2023-04-16T13:47:27;15.26;47.11
66582;SHT31;53438;48.898;2.308;2023-04-16T13:49:53;15.20;47.06
66582;SHT31;53438;48.898;2.308;2023-04-16T13:52:18;15.19;47.42
66582;SHT31;53438;48.898;2.308;2023-04-16T13:54:43;15.10;46.50
66582;SHT31;53438;48.898;2.308;2023-04-16T13:57:09;15.09;47.23
66582;SHT31;53438;48.898;2.308;2023-04-16T13:59:35;15.00;47.72
66582;SHT31;53438;48.898;2.308;2023-04-16T14:02:00;14.99;48.15
66582;SHT31;53438;48.898;2.308;2023-04-16T14:04:26;15.00;49.00
66582;SHT31;53438;48.898;2.308;2023-04-16T14:06:51;15.02;49.00
66582;SHT31;53438;48.898;2.308;2023-04-16T14:09:16;14.92;49.26
66582;SHT31;53438;48.898;2.308;2023-04-16T14:11:42;14.93;49.45
66582;SHT31;53438;48.898;2.308;2023-04-16T14:14:07;14.95;49.48
66582;SHT31;53438;48.898;2.308;2023-04-16T14:16:33;15.00;50.18
66582;SHT31;53438;48.898;2.308;2023-04-16T14:18:58;15.07;49.11
66582;SHT31;53438;48.898;2.308;2023-04-16T14:21:24;15.23;49.30
66582;SHT31;53438;48.898;2.308;2023-04-16T14:23:49;15.44;49.92
66582;SHT31;53438;48.898;2.308;2023-04-16T14:26:15;15.27;48.93
66582;SHT31;53438;48.898;2.308;2023-04-16T14:28:40;15.10;48.75
66582;SHT31;53438;48.898;2.308;2023-04-16T14:31:06;15.07;48.99
66582;SHT31;53438;48.898;2.308;2023-04-16T14:33:31;15.09;49.16
66582;SHT31;53438;48.898;2.308;2023-04-16T14:35:57;15.07;50.04
66582;SHT31;53438;48.898;2.308;2023-04-16T14:38:22;15.22;50.10
66582;SHT31;53438;48.898;2.308;2023-04-16T14:40:47;15.09;49.93
66582;SHT31;53438;48.898;2.308;2023-04-16T14:43:13;15.09;49.96
66582;SHT31;53438;48.898;2.308;2023-04-16T14:45:39;15.07;50.12
66582;SHT31;53438;48.898;2.308;2023-04-16T14:48:04;15.04;50.20
66582;SHT31;53438;48.898;2.308;2023-04-16T14:50:30;15.10;49.51
66582;SHT31;53438;48.898;2.308;2023-04-16T14:52:55;15.07;48.84
66582;SHT31;53438;48.898;2.308;2023-04-16T14:55:21;15.04;49.42
66582;SHT31;53438;48.898;2.308;2023-04-16T14:57:46;15.07;49.51
66582;SHT31;53438;48.898;2.308;2023-04-16T15:00:13;15.04;49.17
66582;SHT31;53438;48.898;2.308;2023-04-16T15:02:41;15.06;49.44
66582;SHT31;53438;48.898;2.308;2023-04-16T15:05:07;15.14;49.38
66582;SHT31;53438;48.898;2.308;2023-04-16T15:07:34;15.23;48.78
66582;SHT31;53438;48.898;2.308;2023-04-16T15:10:00;15.24;49.18
66582;SHT31;53438;48.898;2.308;2023-04-16T15:12:25;15.31;48.59
66582;SHT31;53438;48.898;2.308;2023-04-16T15:14:51;15.37;48.37
66582;SHT31;53438;48.898;2.308;2023-04-16T15:17:16;15.41;48.59
66582;SHT31;53438;48.898;2.308;2023-04-16T15:19:41;15.34;48.98
66582;SHT31;53438;48.898;2.308;2023-04-16T15:22:07;15.40;48.80
66582;SHT31;53438;48.898;2.308;2023-04-16T15:24:32;15.31;46.80
66582;SHT31;53438;48.898;2.308;2023-04-16T15:26:57;15.27;46.22
66582;SHT31;53438;48.898;2.308;2023-04-16T15:29:23;15.19;46.37
66582;SHT31;53438;48.898;2.308;2023-04-16T15:31:48;15.07;45.64
66582;SHT31;53438;48.898;2.308;2023-04-16T15:34:13;15.14;45.02
66582;SHT31;53438;48.898;2.308;2023-04-16T15:36:39;15.22;45.06
66582;SHT31;53438;48.898;2.308;2023-04-16T15:39:04;15.19;45.38
66582;SHT31;53438;48.898;2.308;2023-04-16T15:41:30;15.31;45.37
66582;SHT31;53438;48.898;2.308;2023-04-16T15:44:03;15.13;45.89
66582;SHT31;53438;48.898;2.308;2023-04-16T15:46:28;15.23;45.58
66582;SHT31;53438;48.898;2.308;2023-04-16T15:48:54;15.27;44.14
66582;SHT31;53438;48.898;2.308;2023-04-16T15:51:19;15.49;45.54
66582;SHT31;53438;48.898;2.308;2023-04-16T15:53:44;15.49;45.26
66582;SHT31;53438;48.898;2.308;2023-04-16T15:56:10;15.49;45.03
66582;SHT31;53438;48.898;2.308;2023-04-16T15:58:36;15.50;44.93
66582;SHT31;53438;48.898;2.308;2023-04-16T16:01:01;15.53;45.05
66582;SHT31;53438;48.898;2.308;2023-04-16T16:03:26;15.54;44.54
66582;SHT31;53438;48.898;2.308;2023-04-16T16:05:52;15.44;44.14
66582;SHT31;53438;48.898;2.308;2023-04-16T16:08:17;15.37;44.99
66582;SHT31;53438;48.898;2.308;2023-04-16T16:10:42;15.30;45.15
66582;SHT31;53438;48.898;2.308;2023-04-16T16:13:08;15.44;47.04
66582;SHT31;53438;48.898;2.308;2023-04-16T16:15:41;15.40;46.04
66582;SHT31;53438;48.898;2.308;2023-04-16T16:18:06;15.41;44.29
66582;SHT31;53438;48.898;2.308;2023-04-16T16:20:32;15.26;44.88
66582;SHT31;53438;48.898;2.308;2023-04-16T16:22:59;15.27;45.29
66582;SHT31;53438;48.898;2.308;2023-04-16T16:25:25;15.24;45.33
66582;SHT31;53438;48.898;2.308;2023-04-16T16:27:51;15.22;46.39
66582;SHT31;53438;48.898;2.308;2023-04-16T16:30:17;15.24;45.77
66582;SHT31;53438;48.898;2.308;2023-04-16T16:32:42;15.22;45.60
66582;SHT31;53438;48.898;2.308;2023-04-16T16:35:09;15.33;45.09
66582;SHT31;53438;48.898;2.308;2023-04-16T16:37:35;15.27;46.56
66582;SHT31;53438;48.898;2.308;2023-04-16T16:40:01;15.24;45.79
66582;SHT31;53438;48.898;2.308;2023-04-16T16:42:26;15.23;45.04
66582;SHT31;53438;48.898;2.308;2023-04-16T16:44:51;15.37;44.84
66582;SHT31;53438;48.898;2.308;2023-04-16T16:47:17;15.44;44.45
66582;SHT31;53438;48.898;2.308;2023-04-16T16:49:43;15.41;44.44
66582;SHT31;53438;48.898;2.308;2023-04-16T16:52:08;15.41;44.50
66582;SHT31;53438;48.898;2.308;2023-04-16T16:54:34;15.39;44.84
66582;SHT31;53438;48.898;2.308;2023-04-16T16:56:59;15.27;45.21
66582;SHT31;53438;48.898;2.308;2023-04-16T16:59:26;15.29;45.12
66582;SHT31;53438;48.898;2.308;2023-04-16T17:01:51;15.24;45.45
66582;SHT31;53438;48.898;2.308;2023-04-16T17:04:17;15.26;45.28
66582;SHT31;53438;48.898;2.308;2023-04-16T17:06:42;15.30;44.92
66582;SHT31;53438;48.898;2.308;2023-04-16T17:09:07;15.23;45.48
66582;SHT31;53438;48.898;2.308;2023-04-16T17:11:33;15.26;45.78
66582;SHT31;53438;48.898;2.308;2023-04-16T17:13:58;15.24;44.84
66582;SHT31;53438;48.898;2.308;2023-04-16T17:16:23;15.18;45.15
66582;SHT31;53438;48.898;2.308;2023-04-16T17:18:49;15.14;45.67
66582;SHT31;53438;48.898;2.308;2023-04-16T17:21:14;15.16;45.16
66582;SHT31;53438;48.898;2.308;2023-04-16T17:23:40;15.13;45.60
66582;SHT31;53438;48.898;2.308;2023-04-16T17:26:06;15.00;45.59
66582;SHT31;53438;48.898;2.308;2023-04-16T17:28:31;15.00;45.21
66582;SHT31;53438;48.898;2.308;2023-04-16T17:30:57;14.99;46.19
66582;SHT31;53438;48.898;2.308;2023-04-16T17:33:22;15.00;46.47
66582;SHT31;53438;48.898;2.308;2023-04-16T17:35:47;14.99;46.00
66582;SHT31;53438;48.898;2.308;2023-04-16T17:38:13;14.92;46.36
66582;SHT31;53438;48.898;2.308;2023-04-16T17:40:38;14.89;46.72
66582;SHT31;53438;48.898;2.308;2023-04-16T17:43:03;14.91;46.39
66582;SHT31;53438;48.898;2.308;2023-04-16T17:45:29;14.88;46.71
66582;SHT31;53438;48.898;2.308;2023-04-16T17:47:54;14.85;46.54
66582;SHT31;53438;48.898;2.308;2023-04-16T17:50:20;14.85;46.35
66582;SHT31;53438;48.898;2.308;2023-04-16T17:52:45;14.78;46.99
66582;SHT31;53438;48.898;2.308;2023-04-16T17:55:14;14.72;47.06
66582;SHT31;53438;48.898;2.308;2023-04-16T17:57:40;14.69;47.84
66582;SHT31;53438;48.898;2.308;2023-04-16T18:00:06;14.65;47.29
66582;SHT31;53438;48.898;2.308;2023-04-16T18:02:35;14.64;47.69
66582;SHT31;53438;48.898;2.308;2023-04-16T18:05:04;14.55;47.61
66582;SHT31;53438;48.898;2.308;2023-04-16T18:07:30;14.58;47.56
66582;SHT31;53438;48.898;2.308;2023-04-16T18:09:55;14.49;48.18
66582;SHT31;53438;48.898;2.308;2023-04-16T18:12:21;14.52;48.15
66582;SHT31;53438;48.898;2.308;2023-04-16T18:14:46;14.51;48.26
66582;SHT31;53438;48.898;2.308;2023-04-16T18:17:11;14.49;47.81
66582;SHT31;53438;48.898;2.308;2023-04-16T18:19:37;14.41;48.08
66582;SHT31;53438;48.898;2.308;2023-04-16T18:22:04;14.44;48.62
66582;SHT31;53438;48.898;2.308;2023-04-16T18:24:29;14.38;49.10
66582;SHT31;53438;48.898;2.308;2023-04-16T18:26:58;14.44;48.58
66582;SHT31;53438;48.898;2.308;2023-04-16T18:29:23;14.32;48.81
66582;SHT31;53438;48.898;2.308;2023-04-16T18:31:49;14.35;48.93
66582;SHT31;53438;48.898;2.308;2023-04-16T18:34:14;14.30;49.03
66582;SHT31;53438;48.898;2.308;2023-04-16T18:36:40;14.23;49.68